sensor_id;sensor_type;location;lat;lon;timestamp;pressure;altitude;pressure_sealevel;temperature;humidity
12879;BME280;20617;49.476;10.986;2023-09-08T00:01:43;98570.19;;;20.24;100.00
12879;BME280;20617;49.476;10.986;2023-09-08T00:03:50;98562.13;;;20.26;100.00
12879;BME280;20617;49.476;10.986;2023-09-08T00:05:55;98573.78;;;20.23;100.00
12879;BME280;20617;49.476;10.986;2023-09-08T00:08:00;98569.72;;;20.19;100.00
12879;BME280;20617;49.476;10.986;2023-09-08T00:10:06;98566.84;;;20.22;100.00
12879;BME280;20617;49.476;10.986;2023-09-08T00:12:12;98571.03;;;20.25;100.00
12879;BME280;20617;49.476;10.986;2023-09-08T00:14:17;98566.59;;;20.25;100.00
12879;BME280;20617;49.476;10.986;2023-09-08T00:16:25;98568.97;;;20.17;100.00
12879;BME280;20617;49.476;10.986;2023-09-08T00:18:32;98569.69;;;20.08;100.00
12879;BME280;20617;49.476;10.986;2023-09-08T00:20:38;98559.69;;;20.00;100.00
12879;BME280;20617;49.476;10.986;2023-09-08T00:22:44;98568.09;;;19.94;100.00
12879;BME280;20617;49.476;10.986;2023-09-08T00:24:52;98568.16;;;19.81;100.00
12879;BME280;20617;49.476;10.986;2023-09-08T00:26:55;98578.19;;;19.65;100.00
12879;BME280;20617;49.476;10.986;2023-09-08T00:29:00;98569.13;;;19.56;100.00
12879;BME280;20617;49.476;10.986;2023-09-08T00:31:02;98568.84;;;19.48;100.00
12879;BME280;20617;49.476;10.986;2023-09-08T00:33:11;98573.03;;;19.51;100.00
12879;BME280;20617;49.476;10.986;2023-09-08T00:35:16;98578.69;;;19.46;100.00
12879;BME280;20617;49.476;10.986;2023-09-08T00:37:22;98575.41;;;19.42;100.00
12879;BME280;20617;49.476;10.986;2023-09-08T00:39:24;98573.72;;;19.41;100.00
12879;BME280;20617;49.476;10.986;2023-09-08T00:41:29;98576.59;;;19.38;100.00
12879;BME280;20617;49.476;10.986;2023-09-08T00:43:35;98573.81;;;19.40;100.00
12879;BME280;20617;49.476;10.986;2023-09-08T00:45:45;98578.63;;;19.35;100.00
12879;BME280;20617;49.476;10.986;2023-09-08T00:47:52;98573.44;;;19.33;100.00
12879;BME280;20617;49.476;10.986;2023-09-08T00:50:00;98575.91;;;19.23;100.00
12879;BME280;20617;49.476;10.986;2023-09-08T00:52:05;98581.72;;;19.16;100.00
12879;BME280;20617;49.476;10.986;2023-09-08T00:54:14;98578.78;;;19.20;100.00
12879;BME280;20617;49.476;10.986;2023-09-08T00:56:17;98571.78;;;19.19;100.00
12879;BME280;20617;49.476;10.986;2023-09-08T00:58:25;98575.06;;;19.23;100.00
12879;BME280;20617;49.476;10.986;2023-09-08T01:00:30;98565.22;;;19.25;100.00
12879;BME280;20617;49.476;10.986;2023-09-08T01:02:37;98570.19;;;19.30;100.00
12879;BME280;20617;49.476;10.986;2023-09-08T01:04:44;98561.06;;;19.34;100.00
12879;BME280;20617;49.476;10.986;2023-09-08T01:06:50;98559.50;;;19.31;100.00
12879;BME280;20617;49.476;10.986;2023-09-08T01:08:55;98569.44;;;19.28;100.00
12879;BME280;20617;49.476;10.986;2023-09-08T01:11:01;98565.34;;;19.23;100.00
12879;BME280;20617;49.476;10.986;2023-09-08T01:13:10;98574.94;;;19.25;100.00
12879;BME280;20617;49.476;10.986;2023-09-08T01:15:15;98568.84;;;19.24;100.00
12879;BME280;20617;49.476;10.986;2023-09-08T01:17:21;98576.84;;;19.22;100.00
12879;BME280;20617;49.476;10.986;2023-09-08T01:19:28;98572.00;;;19.16;100.00
12879;BME280;20617;49.476;10.986;2023-09-08T01:24:21;98582.03;;;18.87;100.00
12879;BME280;20617;49.476;10.986;2023-09-08T01:26:37;98581.63;;;18.81;100.00
12879;BME280;20617;49.476;10.986;2023-09-08T01:28:49;98581.94;;;18.76;100.00
12879;BME280;20617;49.476;10.986;2023-09-08T01:30:55;98582.34;;;18.70;100.00
12879;BME280;20617;49.476;10.986;2023-09-08T01:33:01;98581.72;;;18.66;100.00
12879;BME280;20617;49.476;10.986;2023-09-08T01:35:08;98587.41;;;18.60;100.00
12879;BME280;20617;49.476;10.986;2023-09-08T01:37:14;98585.00;;;18.57;100.00
12879;BME280;20617;49.476;10.986;2023-09-08T01:39:19;98583.63;;;18.51;100.00
12879;BME280;20617;49.476;10.986;2023-09-08T01:41:26;98583.53;;;18.53;100.00
12879;BME280;20617;49.476;10.986;2023-09-08T01:43:34;98579.72;;;18.57;100.00
12879;BME280;20617;49.476;10.986;2023-09-08T01:45:41;98579.94;;;18.54;100.00
12879;BME280;20617;49.476;10.986;2023-09-08T01:47:47;98575.28;;;18.58;100.00
12879;BME280;20617;49.476;10.986;2023-09-08T01:49:52;98578.13;;;18.54;100.00
12879;BME280;20617;49.476;10.986;2023-09-08T01:51:54;98571.19;;;18.53;100.00
12879;BME280;20617;49.476;10.986;2023-09-08T01:54:03;98570.34;;;18.53;100.00
12879;BME280;20617;49.476;10.986;2023-09-08T01:56:08;98569.69;;;18.49;100.00
12879;BME280;20617;49.476;10.986;2023-09-08T01:58:14;98577.59;;;18.49;100.00
12879;BME280;20617;49.476;10.986;2023-09-08T02:00:22;98577.59;;;18.49;100.00
12879;BME280;20617;49.476;10.986;2023-09-08T02:02:25;98570.03;;;18.45;100.00
12879;BME280;20617;49.476;10.986;2023-09-08T02:04:30;98571.72;;;18.46;100.00
12879;BME280;20617;49.476;10.986;2023-09-08T02:06:35;98575.94;;;18.48;100.00
12879;BME280;20617;49.476;10.986;2023-09-08T02:08:40;98576.88;;;18.47;100.00
12879;BME280;20617;49.476;10.986;2023-09-08T02:13:03;98576.78;;;18.49;100.00
12879;BME280;20617;49.476;10.986;2023-09-08T02:15:09;98581.06;;;18.50;100.00
12879;BME280;20617;49.476;10.986;2023-09-08T02:17:21;98579.19;;;18.52;100.00
12879;BME280;20617;49.476;10.986;2023-09-08T02:19:26;98576.69;;;18.50;100.00
12879;BME280;20617;49.476;10.986;2023-09-08T02:21:35;98567.06;;;18.49;100.00
12879;BME280;20617;49.476;10.986;2023-09-08T02:23:40;98578.44;;;18.50;100.00
12879;BME280;20617;49.476;10.986;2023-09-08T02:25:45;98575.09;;;18.48;100.00
12879;BME280;20617;49.476;10.986;2023-09-08T02:27:51;98578.66;;;18.47;100.00
12879;BME280;20617;49.476;10.986;2023-09-08T02:30:00;98581.50;;;18.44;100.00
12879;BME280;20617;49.476;10.986;2023-09-08T02:32:05;98580.88;;;18.40;100.00
12879;BME280;20617;49.476;10.986;2023-09-08T02:34:11;98590.59;;;18.40;100.00
12879;BME280;20617;49.476;10.986;2023-09-08T02:36:18;98585.53;;;18.37;100.00
12879;BME280;20617;49.476;10.986;2023-09-08T02:38:29;98585.94;;;18.30;100.00
12879;BME280;20617;49.476;10.986;2023-09-08T02:40:34;98584.38;;;18.28;100.00
12879;BME280;20617;49.476;10.986;2023-09-08T02:42:38;98591.09;;;18.19;100.00
12879;BME280;20617;49.476;10.986;2023-09-08T02:44:44;98591.09;;;18.19;100.00
12879;BME280;20617;49.476;10.986;2023-09-08T02:46:49;98586.03;;;18.16;100.00
12879;BME280;20617;49.476;10.986;2023-09-08T02:49:01;98588.88;;;18.13;100.00
12879;BME280;20617;49.476;10.986;2023-09-08T02:51:09;98587.19;;;18.12;100.00
12879;BME280;20617;49.476;10.986;2023-09-08T02:53:14;98591.81;;;18.08;100.00
12879;BME280;20617;49.476;10.986;2023-09-08T02:55:19;98592.88;;;18.06;100.00
12879;BME280;20617;49.476;10.986;2023-09-08T02:57:27;98599.09;;;18.05;100.00
12879;BME280;20617;49.476;10.986;2023-09-08T02:59:31;98596.56;;;18.03;100.00
12879;BME280;20617;49.476;10.986;2023-09-08T03:01:37;98588.00;;;18.00;100.00
12879;BME280;20617;49.476;10.986;2023-09-08T03:03:45;98591.81;;;17.96;100.00
12879;BME280;20617;49.476;10.986;2023-09-08T03:05:56;98598.88;;;17.95;100.00
12879;BME280;20617;49.476;10.986;2023-09-08T03:08:08;98599.28;;;17.89;100.00
12879;BME280;20617;49.476;10.986;2023-09-08T03:10:13;98596.94;;;17.84;100.00
12879;BME280;20617;49.476;10.986;2023-09-08T03:12:20;98600.53;;;17.83;100.00
12879;BME280;20617;49.476;10.986;2023-09-08T03:14:28;98590.00;;;17.83;100.00
12879;BME280;20617;49.476;10.986;2023-09-08T03:16:33;98598.00;;;17.82;100.00
12879;BME280;20617;49.476;10.986;2023-09-08T03:18:39;98592.63;;;17.83;100.00
12879;BME280;20617;49.476;10.986;2023-09-08T03:20:48;98598.94;;;17.81;100.00
12879;BME280;20617;49.476;10.986;2023-09-08T03:22:55;98590.47;;;17.76;100.00
12879;BME280;20617;49.476;10.986;2023-09-08T03:25:04;98580.03;;;17.74;100.00
12879;BME280;20617;49.476;10.986;2023-09-08T03:27:11;98587.41;;;17.69;100.00
12879;BME280;20617;49.476;10.986;2023-09-08T03:29:20;98590.44;;;17.63;100.00
12879;BME280;20617;49.476;10.986;2023-09-08T03:31:26;98581.47;;;17.65;100.00
12879;BME280;20617;49.476;10.986;2023-09-08T03:33:32;98576.97;;;17.68;100.00
12879;BME280;20617;49.476;10.986;2023-09-08T03:35:39;98584.78;;;17.69;100.00
12879;BME280;20617;49.476;10.986;2023-09-08T03:37:43;98580.56;;;17.67;100.00
12879;BME280;20617;49.476;10.986;2023-09-08T03:39:50;98581.59;;;17.64;100.00
12879;BME280;20617;49.476;10.986;2023-09-08T03:41:58;98580.56;;;17.67;100.00
12879;BME280;20617;49.476;10.986;2023-09-08T03:44:05;98584.22;;;17.64;100.00
12879;BME280;20617;49.476;10.986;2023-09-08T03:46:16;98575.50;;;17.63;100.00
12879;BME280;20617;49.476;10.986;2023-09-08T03:48:21;98576.53;;;17.61;100.00
12879;BME280;20617;49.476;10.986;2023-09-08T03:50:29;98580.97;;;17.60;100.00
12879;BME280;20617;49.476;10.986;2023-09-08T03:52:35;98575.44;;;17.51;100.00
12879;BME280;20617;49.476;10.986;2023-09-08T03:54:43;98572.47;;;17.42;100.00
12879;BME280;20617;49.476;10.986;2023-09-08T03:56:50;98571.94;;;17.37;100.00
12879;BME280;20617;49.476;10.986;2023-09-08T03:58:58;98572.66;;;17.12;100.00
12879;BME280;20617;49.476;10.986;2023-09-08T04:01:03;98578.03;;;17.11;100.00
12879;BME280;20617;49.476;10.986;2023-09-08T04:03:09;98578.03;;;17.11;100.00
12879;BME280;20617;49.476;10.986;2023-09-08T04:05:16;98584.97;;;17.12;100.00
12879;BME280;20617;49.476;10.986;2023-09-08T04:07:21;98586.44;;;17.16;100.00
12879;BME280;20617;49.476;10.986;2023-09-08T04:09:26;98588.34;;;17.14;100.00
12879;BME280;20617;49.476;10.986;2023-09-08T04:11:33;98587.50;;;17.13;100.00
12879;BME280;20617;49.476;10.986;2023-09-08T04:13:40;98590.22;;;17.12;100.00
12879;BME280;20617;49.476;10.986;2023-09-08T04:15:48;98587.41;;;17.15;100.00
12879;BME280;20617;49.476;10.986;2023-09-08T04:17:54;98585.53;;;17.17;100.00
12879;BME280;20617;49.476;10.986;2023-09-08T04:19:57;98583.63;;;17.19;100.00
12879;BME280;20617;49.476;10.986;2023-09-08T04:22:03;98584.56;;;17.18;100.00
12879;BME280;20617;49.476;10.986;2023-09-08T04:24:08;98579.63;;;17.13;100.00
12879;BME280;20617;49.476;10.986;2023-09-08T04:26:15;98587.69;;;17.10;100.00
12879;BME280;20617;49.476;10.986;2023-09-08T04:28:20;98587.78;;;17.09;100.00
12879;BME280;20617;49.476;10.986;2023-09-08T04:30:25;98589.97;;;17.02;100.00
12879;BME280;20617;49.476;10.986;2023-09-08T04:32:33;98589.97;;;17.02;100.00
12879;BME280;20617;49.476;10.986;2023-09-08T04:34:41;98594.47;;;17.00;100.00
12879;BME280;20617;49.476;10.986;2023-09-08T04:36:46;98591.75;;;17.02;100.00
12879;BME280;20617;49.476;10.986;2023-09-08T04:38:55;98584.78;;;17.01;100.00
12879;BME280;20617;49.476;10.986;2023-09-08T04:41:01;98591.19;;;16.96;100.00
12879;BME280;20617;49.476;10.986;2023-09-08T04:43:06;98592.88;;;16.97;100.00
12879;BME280;20617;49.476;10.986;2023-09-08T04:45:13;98596.47;;;16.96;100.00
12879;BME280;20617;49.476;10.986;2023-09-08T04:47:19;98597.38;;;16.95;100.00
12879;BME280;20617;49.476;10.986;2023-09-08T04:49:26;98599.16;;;16.95;100.00
12879;BME280;20617;49.476;10.986;2023-09-08T04:51:31;98593.91;;;16.95;100.00
12879;BME280;20617;49.476;10.986;2023-09-08T04:53:36;98597.56;;;16.92;100.00
12879;BME280;20617;49.476;10.986;2023-09-08T04:55:43;98596.72;;;16.92;100.00
12879;BME280;20617;49.476;10.986;2023-09-08T04:57:52;98598.53;;;16.91;100.00
12879;BME280;20617;49.476;10.986;2023-09-08T04:59:59;98600.00;;;16.95;100.00
12879;BME280;20617;49.476;10.986;2023-09-08T05:02:04;98603.31;;;16.99;100.00
12879;BME280;20617;49.476;10.986;2023-09-08T05:04:09;98605.06;;;16.98;100.00
12879;BME280;20617;49.476;10.986;2023-09-08T05:06:17;98601.53;;;17.00;100.00
12879;BME280;20617;49.476;10.986;2023-09-08T05:08:22;98599.66;;;17.02;100.00
12879;BME280;20617;49.476;10.986;2023-09-08T05:10:28;98593.25;;;17.06;100.00
12879;BME280;20617;49.476;10.986;2023-09-08T05:12:35;98600.81;;;17.10;100.00
12879;BME280;20617;49.476;10.986;2023-09-08T05:14:41;98597.06;;;17.14;100.00
12879;BME280;20617;49.476;10.986;2023-09-08T05:16:46;98595.00;;;17.19;100.00
12879;BME280;20617;49.476;10.986;2023-09-08T05:19:01;98596.88;;;17.17;100.00
12879;BME280;20617;49.476;10.986;2023-09-08T05:21:06;98597.91;;;17.15;100.00
12879;BME280;20617;49.476;10.986;2023-09-08T05:23:16;98600.66;;;17.13;100.00
12879;BME280;20617;49.476;10.986;2023-09-08T05:25:21;98599.72;;;17.14;100.00
12879;BME280;20617;49.476;10.986;2023-09-08T05:27:26;98600.75;;;17.12;100.00
12879;BME280;20617;49.476;10.986;2023-09-08T05:29:31;98608.84;;;17.09;100.00
12879;BME280;20617;49.476;10.986;2023-09-08T05:31:37;98610.91;;;17.04;100.00
12879;BME280;20617;49.476;10.986;2023-09-08T05:33:42;98608.56;;;16.99;100.00
12879;BME280;20617;49.476;10.986;2023-09-08T05:35:49;98605.28;;;16.95;100.00
12879;BME280;20617;49.476;10.986;2023-09-08T05:37:58;98608.56;;;16.99;100.00
12879;BME280;20617;49.476;10.986;2023-09-08T05:40:10;98610.06;;;17.03;100.00
12879;BME280;20617;49.476;10.986;2023-09-08T05:42:16;98606.66;;;17.01;100.00
12879;BME280;20617;49.476;10.986;2023-09-08T05:44:21;98607.63;;;17.00;100.00
12879;BME280;20617;49.476;10.986;2023-09-08T05:46:28;98613.63;;;17.02;100.00
12879;BME280;20617;49.476;10.986;2023-09-08T05:48:34;98617.94;;;17.03;100.00
12879;BME280;20617;49.476;10.986;2023-09-08T05:50:39;98617.94;;;17.03;100.00
12879;BME280;20617;49.476;10.986;2023-09-08T05:52:42;98618.31;;;17.11;100.00
12879;BME280;20617;49.476;10.986;2023-09-08T05:54:46;98620.00;;;17.12;100.00
12879;BME280;20617;49.476;10.986;2023-09-08T05:56:51;98619.34;;;17.23;100.00
12879;BME280;20617;49.476;10.986;2023-09-08T05:58:57;98623.91;;;17.34;100.00
12879;BME280;20617;49.476;10.986;2023-09-08T06:01:04;98619.75;;;17.44;100.00
12879;BME280;20617;49.476;10.986;2023-09-08T06:03:09;98620.19;;;17.51;100.00
12879;BME280;20617;49.476;10.986;2023-09-08T06:05:16;98608.31;;;17.58;100.00
12879;BME280;20617;49.476;10.986;2023-09-08T06:07:19;98615.69;;;17.65;100.00
12879;BME280;20617;49.476;10.986;2023-09-08T06:09:24;98618.03;;;17.70;100.00
12879;BME280;20617;49.476;10.986;2023-09-08T06:11:31;98617.63;;;17.76;100.00
12879;BME280;20617;49.476;10.986;2023-09-08T06:13:41;98613.72;;;17.83;100.00
12879;BME280;20617;49.476;10.986;2023-09-08T06:15:47;98617.06;;;17.85;100.00
12879;BME280;20617;49.476;10.986;2023-09-08T06:17:50;98621.09;;;17.91;100.00
12879;BME280;20617;49.476;10.986;2023-09-08T06:19:55;98609.22;;;17.98;100.00
12879;BME280;20617;49.476;10.986;2023-09-08T06:22:02;98609.63;;;18.05;100.00
12879;BME280;20617;49.476;10.986;2023-09-08T06:24:08;98603.94;;;18.11;100.00
12879;BME280;20617;49.476;10.986;2023-09-08T06:26:13;98607.88;;;18.18;100.00
12879;BME280;20617;49.476;10.986;2023-09-08T06:28:19;98601.44;;;18.22;100.00
12879;BME280;20617;49.476;10.986;2023-09-08T06:30:26;98604.06;;;18.22;100.00
12879;BME280;20617;49.476;10.986;2023-09-08T06:32:32;98607.75;;;18.20;100.00
12879;BME280;20617;49.476;10.986;2023-09-08T06:34:37;98606.28;;;18.16;100.00
12879;BME280;20617;49.476;10.986;2023-09-08T06:36:42;98607.97;;;18.17;100.00
12879;BME280;20617;49.476;10.986;2023-09-08T06:38:47;98603.97;;;18.24;100.00
12879;BME280;20617;49.476;10.986;2023-09-08T06:40:53;98608.84;;;18.30;100.00
12879;BME280;20617;49.476;10.986;2023-09-08T06:42:58;98607.34;;;18.26;100.00
12879;BME280;20617;49.476;10.986;2023-09-08T06:45:47;98599.56;;;18.24;100.00
12879;BME280;20617;49.476;10.986;2023-09-08T06:47:57;98614.19;;;18.28;100.00
12879;BME280;20617;49.476;10.986;2023-09-08T06:50:03;98603.97;;;18.37;100.00
12879;BME280;20617;49.476;10.986;2023-09-08T06:52:09;98604.72;;;18.39;100.00
12879;BME280;20617;49.476;10.986;2023-09-08T06:54:16;98604.50;;;18.42;100.00
12879;BME280;20617;49.476;10.986;2023-09-08T06:56:25;98604.19;;;18.46;100.00
12879;BME280;20617;49.476;10.986;2023-09-08T06:58:34;98610.63;;;18.42;100.00
12879;BME280;20617;49.476;10.986;2023-09-08T07:00:53;98604.63;;;18.53;100.00
12879;BME280;20617;49.476;10.986;2023-09-08T07:03:02;98614.09;;;18.55;100.00
12879;BME280;20617;49.476;10.986;2023-09-08T07:05:12;98614.00;;;18.57;100.00
12879;BME280;20617;49.476;10.986;2023-09-08T07:07:26;98616.00;;;18.66;100.00
12879;BME280;20617;49.476;10.986;2023-09-08T07:09:32;98615.69;;;18.71;100.00
12879;BME280;20617;49.476;10.986;2023-09-08T07:11:40;98615.47;;;18.87;100.00
12879;BME280;20617;49.476;10.986;2023-09-08T07:13:47;98613.66;;;19.00;100.00
12879;BME280;20617;49.476;10.986;2023-09-08T07:15:55;98614.16;;;19.05;100.00
12879;BME280;20617;49.476;10.986;2023-09-08T07:18:01;98617.94;;;19.14;100.00
12879;BME280;20617;49.476;10.986;2023-09-08T07:20:08;98615.28;;;19.27;100.00
12879;BME280;20617;49.476;10.986;2023-09-08T07:22:14;98608.56;;;19.47;100.00
12879;BME280;20617;49.476;10.986;2023-09-08T07:24:19;98601.94;;;19.89;100.00
12879;BME280;20617;49.476;10.986;2023-09-08T07:26:26;98593.19;;;20.46;100.00
12879;BME280;20617;49.476;10.986;2023-09-08T07:28:29;98586.84;;;20.83;100.00
12879;BME280;20617;49.476;10.986;2023-09-08T07:30:39;98586.47;;;20.98;100.00
12879;BME280;20617;49.476;10.986;2023-09-08T07:32:48;98585.00;;;21.06;100.00
12879;BME280;20617;49.476;10.986;2023-09-08T07:34:53;98588.28;;;21.09;100.00
12879;BME280;20617;49.476;10.986;2023-09-08T07:37:00;98584.06;;;21.18;100.00
12879;BME280;20617;49.476;10.986;2023-09-08T07:41:10;98579.81;;;21.27;100.00
12879;BME280;20617;49.476;10.986;2023-09-08T07:43:15;98584.88;;;21.30;100.00
12879;BME280;20617;49.476;10.986;2023-09-08T07:45:18;98587.63;;;21.39;100.00
12879;BME280;20617;49.476;10.986;2023-09-08T07:47:23;98583.06;;;21.41;100.00
12879;BME280;20617;49.476;10.986;2023-09-08T07:49:34;98582.44;;;21.38;100.00
12879;BME280;20617;49.476;10.986;2023-09-08T07:51:37;98585.81;;;21.40;100.00
12879;BME280;20617;49.476;10.986;2023-09-08T07:53:44;98579.69;;;21.39;100.00
12879;BME280;20617;49.476;10.986;2023-09-08T07:55:50;98582.19;;;21.41;100.00
12879;BME280;20617;49.476;10.986;2023-09-08T07:57:57;98579.06;;;21.36;100.00
12879;BME280;20617;49.476;10.986;2023-09-08T08:00:03;98584.47;;;21.34;100.00
12879;BME280;20617;49.476;10.986;2023-09-08T08:02:13;98581.13;;;21.32;100.00
12879;BME280;20617;49.476;10.986;2023-09-08T08:04:18;98580.16;;;21.33;100.00
12879;BME280;20617;49.476;10.986;2023-09-08T08:06:27;98579.44;;;21.42;100.00
12879;BME280;20617;49.476;10.986;2023-09-08T08:08:32;98582.31;;;21.51;100.00
12879;BME280;20617;49.476;10.986;2023-09-08T08:10:41;98587.00;;;21.47;100.00
12879;BME280;20617;49.476;10.986;2023-09-08T08:12:46;98580.75;;;21.48;100.00
12879;BME280;20617;49.476;10.986;2023-09-08T08:14:51;98582.78;;;21.56;100.00
12879;BME280;20617;49.476;10.986;2023-09-08T08:16:53;98581.28;;;21.63;100.00
12879;BME280;20617;49.476;10.986;2023-09-08T08:19:00;98577.41;;;21.67;100.00
12879;BME280;20617;49.476;10.986;2023-09-08T08:21:05;98580.44;;;21.62;100.00
12879;BME280;20617;49.476;10.986;2023-09-08T08:23:13;98588.72;;;21.69;100.00
12879;BME280;20617;49.476;10.986;2023-09-08T08:25:18;98576.16;;;21.82;100.00
12879;BME280;20617;49.476;10.986;2023-09-08T08:27:23;98577.06;;;21.92;100.00
12879;BME280;20617;49.476;10.986;2023-09-08T08:29:29;98570.03;;;22.03;100.00
12879;BME280;20617;49.476;10.986;2023-09-08T08:31:34;98575.78;;;22.08;100.00
12879;BME280;20617;49.476;10.986;2023-09-08T08:33:39;98573.31;;;22.16;100.00
12879;BME280;20617;49.476;10.986;2023-09-08T08:35:48;98572.63;;;22.14;100.00
12879;BME280;20617;49.476;10.986;2023-09-08T08:37:53;98579.81;;;22.23;100.00
12879;BME280;20617;49.476;10.986;2023-09-08T08:40:01;98570.88;;;22.24;100.00
12879;BME280;20617;49.476;10.986;2023-09-08T08:42:09;98572.06;;;22.31;100.00
12879;BME280;20617;49.476;10.986;2023-09-08T08:44:16;98568.19;;;22.45;100.00
12879;BME280;20617;49.476;10.986;2023-09-08T08:46:23;98569.63;;;22.49;100.00
12879;BME280;20617;49.476;10.986;2023-09-08T08:48:29;98573.16;;;22.59;100.00
12879;BME280;20617;49.476;10.986;2023-09-08T08:50:37;98569.41;;;22.62;100.00
12879;BME280;20617;49.476;10.986;2023-09-08T08:52:44;98567.50;;;22.74;100.00
12879;BME280;20617;49.476;10.986;2023-09-08T08:54:48;98564.13;;;22.72;100.00
12879;BME280;20617;49.476;10.986;2023-09-08T08:56:56;98557.88;;;22.82;100.00
12879;BME280;20617;49.476;10.986;2023-09-08T08:59:02;98561.44;;;22.93;100.00
12879;BME280;20617;49.476;10.986;2023-09-08T09:01:10;98565.22;;;23.00;100.00
12879;BME280;20617;49.476;10.986;2023-09-08T09:03:17;98558.97;;;23.11;100.00
12879;BME280;20617;49.476;10.986;2023-09-08T09:05:23;98555.09;;;23.24;100.00
12879;BME280;20617;49.476;10.986;2023-09-08T09:07:29;98556.22;;;23.32;100.00
12879;BME280;20617;49.476;10.986;2023-09-08T09:09:35;98557.91;;;23.42;100.00
12879;BME280;20617;49.476;10.986;2023-09-08T09:11:41;98558.47;;;23.46;100.00
12879;BME280;20617;49.476;10.986;2023-09-08T09:13:49;98543.63;;;23.53;100.00
12879;BME280;20617;49.476;10.986;2023-09-08T09:15:58;98553.47;;;23.62;100.00
12879;BME280;20617;49.476;10.986;2023-09-08T09:18:06;98552.91;;;23.68;100.00
12879;BME280;20617;49.476;10.986;2023-09-08T09:20:18;98542.97;;;23.70;100.00
12879;BME280;20617;49.476;10.986;2023-09-08T09:22:36;98542.97;;;23.80;100.00
12879;BME280;20617;49.476;10.986;2023-09-08T09:24:41;98544.38;;;23.94;100.00
12879;BME280;20617;49.476;10.986;2023-09-08T09:26:51;98546.19;;;24.03;100.00
12879;BME280;20617;49.476;10.986;2023-09-08T09:29:00;98538.41;;;24.20;100.00
12879;BME280;20617;49.476;10.986;2023-09-08T09:31:05;98534.88;;;24.29;100.00
12879;BME280;20617;49.476;10.986;2023-09-08T09:33:11;98534.03;;;24.38;100.00
12879;BME280;20617;49.476;10.986;2023-09-08T09:35:16;98530.53;;;24.37;100.00
12879;BME280;20617;49.476;10.986;2023-09-08T09:37:22;98526.78;;;24.30;100.00
12879;BME280;20617;49.476;10.986;2023-09-08T09:39:28;98527.47;;;24.32;100.00
12879;BME280;20617;49.476;10.986;2023-09-08T09:41:33;98525.06;;;24.39;100.00
12879;BME280;20617;49.476;10.986;2023-09-08T09:43:39;98527.88;;;24.47;100.00
12879;BME280;20617;49.476;10.986;2023-09-08T09:45:49;98524.47;;;24.55;100.00
12879;BME280;20617;49.476;10.986;2023-09-08T09:47:55;98522.22;;;24.60;100.00
12879;BME280;20617;49.476;10.986;2023-09-08T09:50:03;98523.16;;;24.69;100.00
12879;BME280;20617;49.476;10.986;2023-09-08T09:52:11;98519.22;;;24.73;100.00
12879;BME280;20617;49.476;10.986;2023-09-08T09:54:17;98510.47;;;24.80;100.00
12879;BME280;20617;49.476;10.986;2023-09-08T09:56:22;98513.53;;;24.85;100.00
12879;BME280;20617;49.476;10.986;2023-09-08T09:58:28;98512.22;;;24.99;100.00
12879;BME280;20617;49.476;10.986;2023-09-08T10:00:35;98509.47;;;25.09;100.00
12879;BME280;20617;49.476;10.986;2023-09-08T10:02:46;98511.56;;;25.15;100.00
12879;BME280;20617;49.476;10.986;2023-09-08T10:04:53;98515.31;;;25.22;100.00
12879;BME280;20617;49.476;10.986;2023-09-08T10:06:58;98515.97;;;25.24;100.00
12879;BME280;20617;49.476;10.986;2023-09-08T10:09:06;98512.69;;;25.30;100.00
12879;BME280;20617;49.476;10.986;2023-09-08T10:11:18;98508.97;;;25.41;100.00
12879;BME280;20617;49.476;10.986;2023-09-08T10:13:27;98516.88;;;25.51;100.00
12879;BME280;20617;49.476;10.986;2023-09-08T10:15:34;98506.84;;;25.63;100.00
12879;BME280;20617;49.476;10.986;2023-09-08T10:17:47;98506.91;;;25.71;100.00
12879;BME280;20617;49.476;10.986;2023-09-08T10:20:00;98509.25;;;25.74;100.00
12879;BME280;20617;49.476;10.986;2023-09-08T10:22:14;98501.94;;;25.76;100.00
12879;BME280;20617;49.476;10.986;2023-09-08T10:24:24;98504.22;;;25.89;100.00
12879;BME280;20617;49.476;10.986;2023-09-08T10:26:32;98499.44;;;25.92;100.00
12879;BME280;20617;49.476;10.986;2023-09-08T10:28:44;98499.66;;;25.99;100.00
12879;BME280;20617;49.476;10.986;2023-09-08T10:30:50;98495.06;;;26.09;100.00
12879;BME280;20617;49.476;10.986;2023-09-08T10:32:59;98491.25;;;26.20;100.00
12879;BME280;20617;49.476;10.986;2023-09-08T10:35:06;98492.63;;;26.24;100.00
12879;BME280;20617;49.476;10.986;2023-09-08T10:37:20;98490.28;;;26.21;100.00
12879;BME280;20617;49.476;10.986;2023-09-08T10:39:29;98492.31;;;26.27;100.00
12879;BME280;20617;49.476;10.986;2023-09-08T10:41:38;98491.78;;;26.24;100.00
12879;BME280;20617;49.476;10.986;2023-09-08T10:43:54;98482.16;;;26.31;100.00
12879;BME280;20617;49.476;10.986;2023-09-08T10:45:57;98482.31;;;26.29;100.00
12879;BME280;20617;49.476;10.986;2023-09-08T10:48:06;98470.97;;;26.35;100.00
12879;BME280;20617;49.476;10.986;2023-09-08T10:50:16;98475.03;;;26.39;100.00
12879;BME280;20617;49.476;10.986;2023-09-08T10:52:22;98470.16;;;26.35;100.00
12879;BME280;20617;49.476;10.986;2023-09-08T10:54:43;98471.72;;;26.46;100.00
12879;BME280;20617;49.476;10.986;2023-09-08T10:56:54;98472.94;;;26.51;99.68
12879;BME280;20617;49.476;10.986;2023-09-08T10:58:59;98464.72;;;26.45;100.00
12879;BME280;20617;49.476;10.986;2023-09-08T11:01:05;98469.63;;;26.57;99.50
12879;BME280;20617;49.476;10.986;2023-09-08T11:03:13;98467.78;;;26.58;96.26